sensor_id;sensor_type;location;lat;lon;timestamp;pressure;altitude;pressure_sealevel;temperature;humidity
17593;BME280;8915;51.760;14.300;2023-02-12T00:01:33;102515.41;;;4.23;100.00
17593;BME280;8915;51.760;14.300;2023-02-12T00:04:00;102516.19;;;4.21;100.00
17593;BME280;8915;51.760;14.300;2023-02-12T00:06:28;102518.69;;;4.17;100.00
17593;BME280;8915;51.760;14.300;2023-02-12T00:08:55;102518.81;;;4.22;100.00
17593;BME280;8915;51.760;14.300;2023-02-12T00:11:24;102525.63;;;4.20;100.00
17593;BME280;8915;51.760;14.300;2023-02-12T00:13:51;102517.97;;;4.23;100.00
17593;BME280;8915;51.760;14.300;2023-02-12T00:16:19;102523.09;;;4.22;100.00
17593;BME280;8915;51.760;14.300;2023-02-12T00:18:46;102514.44;;;4.20;100.00
17593;BME280;8915;51.760;14.300;2023-02-12T00:21:13;102512.66;;;4.18;100.00
17593;BME280;8915;51.760;14.300;2023-02-12T00:23:42;102526.53;;;4.21;100.00
17593;BME280;8915;51.760;14.300;2023-02-12T00:26:12;102541.13;;;4.20;100.00
17593;BME280;8915;51.760;14.300;2023-02-12T00:28:44;102541.88;;;4.16;100.00
17593;BME280;8915;51.760;14.300;2023-02-12T00:31:13;102543.56;;;4.15;100.00
17593;BME280;8915;51.760;14.300;2023-02-12T00:33:40;102542.59;;;4.12;100.00
17593;BME280;8915;51.760;14.300;2023-02-12T00:36:08;102534.75;;;4.09;100.00
17593;BME280;8915;51.760;14.300;2023-02-12T00:38:34;102535.72;;;4.12;100.00
17593;BME280;8915;51.760;14.300;2023-02-12T00:41:03;102541.75;;;4.13;100.00
17593;BME280;8915;51.760;14.300;2023-02-12T00:43:30;102547.66;;;4.09;100.00
17593;BME280;8915;51.760;14.300;2023-02-12T00:45:56;102559.78;;;4.11;100.00
17593;BME280;8915;51.760;14.300;2023-02-12T00:48:22;102555.47;;;4.10;100.00
17593;BME280;8915;51.760;14.300;2023-02-12T00:50:49;102552.09;;;4.13;100.00
17593;BME280;8915;51.760;14.300;2023-02-12T00:53:16;102560.75;;;4.15;100.00
17593;BME280;8915;51.760;14.300;2023-02-12T00:55:42;102553.84;;;4.14;100.00
17593;BME280;8915;51.760;14.300;2023-02-12T00:58:10;102555.56;;;4.13;100.00
17593;BME280;8915;51.760;14.300;2023-02-12T01:00:37;102560.53;;;4.07;100.00
17593;BME280;8915;51.760;14.300;2023-02-12T01:03:04;102566.66;;;4.11;100.00
17593;BME280;8915;51.760;14.300;2023-02-12T01:05:31;102569.25;;;4.11;100.00
17593;BME280;8915;51.760;14.300;2023-02-12T01:07:58;102571.06;;;4.13;100.00
17593;BME280;8915;51.760;14.300;2023-02-12T01:10:25;102564.06;;;4.11;100.00
17593;BME280;8915;51.760;14.300;2023-02-12T01:12:51;102570.09;;;4.10;100.00
17593;BME280;8915;51.760;14.300;2023-02-12T01:15:19;102564.03;;;4.09;100.00
17593;BME280;8915;51.760;14.300;2023-02-12T01:17:46;102565.75;;;4.09;100.00
17593;BME280;8915;51.760;14.300;2023-02-12T01:20:14;102566.50;;;4.06;100.00
17593;BME280;8915;51.760;14.300;2023-02-12T01:22:41;102567.41;;;4.07;100.00
17593;BME280;8915;51.760;14.300;2023-02-12T01:25:08;102565.63;;;4.06;100.00
17593;BME280;8915;51.760;14.300;2023-02-12T01:27:35;102570.84;;;4.07;100.00
17593;BME280;8915;51.760;14.300;2023-02-12T01:30:02;102571.72;;;4.08;100.00
17593;BME280;8915;51.760;14.300;2023-02-12T01:32:30;102573.47;;;4.09;100.00
17593;BME280;8915;51.760;14.300;2023-02-12T01:34:56;102576.06;;;4.09;100.00
17593;BME280;8915;51.760;14.300;2023-02-12T01:37:23;102575.97;;;4.06;100.00
17593;BME280;8915;51.760;14.300;2023-02-12T01:39:51;102569.13;;;4.08;100.00
17593;BME280;8915;51.760;14.300;2023-02-12T01:42:18;102576.06;;;4.09;100.00
17593;BME280;8915;51.760;14.300;2023-02-12T01:44:45;102564.88;;;4.08;100.00
17593;BME280;8915;51.760;14.300;2023-02-12T01:47:32;102563.09;;;4.07;100.00
17593;BME280;8915;51.760;14.300;2023-02-12T01:49:59;102567.44;;;4.08;100.00
17593;BME280;8915;51.760;14.300;2023-02-12T01:52:29;102573.44;;;4.07;100.00
17593;BME280;8915;51.760;14.300;2023-02-12T01:54:58;102570.91;;;4.09;100.00
17593;BME280;8915;51.760;14.300;2023-02-12T01:57:27;102578.81;;;4.13;100.00
17593;BME280;8915;51.760;14.300;2023-02-12T01:59:57;102574.41;;;4.11;100.00
17593;BME280;8915;51.760;14.300;2023-02-12T02:02:25;102578.69;;;4.10;100.00
17593;BME280;8915;51.760;14.300;2023-02-12T02:04:57;102577.84;;;4.11;100.00
17593;BME280;8915;51.760;14.300;2023-02-12T02:07:26;102583.91;;;4.12;100.00
17593;BME280;8915;51.760;14.300;2023-02-12T02:09:53;102587.22;;;4.08;100.00
17593;BME280;8915;51.760;14.300;2023-02-12T02:12:20;102593.97;;;4.04;100.00
17593;BME280;8915;51.760;14.300;2023-02-12T02:15:05;102593.06;;;4.02;100.00
17593;BME280;8915;51.760;14.300;2023-02-12T02:17:41;102586.97;;;4.00;100.00
17593;BME280;8915;51.760;14.300;2023-02-12T02:23:54;102583.53;;;4.00;100.00
17593;BME280;8915;51.760;14.300;2023-02-12T02:26:34;102586.06;;;3.98;100.00
17593;BME280;8915;51.760;14.300;2023-02-12T02:29:19;102588.56;;;3.96;100.00
17593;BME280;8915;51.760;14.300;2023-02-12T02:31:52;102589.31;;;3.92;100.00
17593;BME280;8915;51.760;14.300;2023-02-12T02:34:27;102587.44;;;3.88;100.00
17593;BME280;8915;51.760;14.300;2023-02-12T02:36:59;102588.22;;;3.86;100.00
17593;BME280;8915;51.760;14.300;2023-02-12T02:39:31;102596.72;;;3.83;100.00
17593;BME280;8915;51.760;14.300;2023-02-12T02:42:08;102594.06;;;3.80;100.00
17593;BME280;8915;51.760;14.300;2023-02-12T02:44:41;102596.78;;;3.85;100.00
17593;BME280;8915;51.760;14.300;2023-02-12T02:47:13;102592.47;;;3.84;100.00
17593;BME280;8915;51.760;14.300;2023-02-12T02:49:43;102595.91;;;3.84;100.00
17593;BME280;8915;51.760;14.300;2023-02-12T02:52:16;102601.06;;;3.84;100.00
17593;BME280;8915;51.760;14.300;2023-02-12T02:54:46;102597.63;;;3.84;100.00
17593;BME280;8915;51.760;14.300;2023-02-12T02:57:28;102601.19;;;3.87;100.00
17593;BME280;8915;51.760;14.300;2023-02-12T03:00:00;102604.59;;;3.86;100.00
17593;BME280;8915;51.760;14.300;2023-02-12T03:02:32;102599.31;;;3.83;100.00
17593;BME280;8915;51.760;14.300;2023-02-12T03:05:02;102609.63;;;3.83;100.00
17593;BME280;8915;51.760;14.300;2023-02-12T03:07:34;102625.19;;;3.85;100.00
17593;BME280;8915;51.760;14.300;2023-02-12T03:10:04;102620.88;;;3.85;100.00
17593;BME280;8915;51.760;14.300;2023-02-12T03:12:35;102619.16;;;3.84;100.00
17593;BME280;8915;51.760;14.300;2023-02-12T03:15:07;102631.13;;;3.82;100.00
17593;BME280;8915;51.760;14.300;2023-02-12T03:17:39;102631.13;;;3.82;100.00
17593;BME280;8915;51.760;14.300;2023-02-12T03:20:12;102625.03;;;3.80;100.00
17593;BME280;8915;51.760;14.300;2023-02-12T03:22:43;102631.00;;;3.79;100.00
17593;BME280;8915;51.760;14.300;2023-02-12T03:25:12;102637.88;;;3.78;100.00
17593;BME280;8915;51.760;14.300;2023-02-12T03:27:41;102642.94;;;3.75;100.00
17593;BME280;8915;51.760;14.300;2023-02-12T03:30:10;102644.59;;;3.73;100.00
17593;BME280;8915;51.760;14.300;2023-02-12T03:32:43;102648.81;;;3.71;100.00
17593;BME280;8915;51.760;14.300;2023-02-12T03:35:14;102645.34;;;3.71;100.00
17593;BME280;8915;51.760;14.300;2023-02-12T03:37:45;102648.75;;;3.70;100.00
17593;BME280;8915;51.760;14.300;2023-02-12T03:40:17;102647.84;;;3.68;100.00
17593;BME280;8915;51.760;14.300;2023-02-12T03:42:49;102658.09;;;3.66;100.00
17593;BME280;8915;51.760;14.300;2023-02-12T03:45:26;102655.47;;;3.65;100.00
17593;BME280;8915;51.760;14.300;2023-02-12T03:48:00;102657.94;;;3.62;100.00
17593;BME280;8915;51.760;14.300;2023-02-12T03:50:35;102656.06;;;3.57;100.00
17593;BME280;8915;51.760;14.300;2023-02-12T03:53:04;102669.19;;;3.64;100.00
17593;BME280;8915;51.760;14.300;2023-02-12T03:55:35;102663.97;;;3.62;100.00
17593;BME280;8915;51.760;14.300;2023-02-12T03:58:07;102663.16;;;3.63;100.00
17593;BME280;8915;51.760;14.300;2023-02-12T04:00:36;102672.59;;;3.63;100.00
17593;BME280;8915;51.760;14.300;2023-02-12T04:03:05;102675.00;;;3.58;100.00
17593;BME280;8915;51.760;14.300;2023-02-12T04:05:32;102684.41;;;3.56;100.00
17593;BME280;8915;51.760;14.300;2023-02-12T04:07:59;102688.72;;;3.57;100.00
17593;BME280;8915;51.760;14.300;2023-02-12T04:10:32;102692.94;;;3.55;100.00
17593;BME280;8915;51.760;14.300;2023-02-12T04:13:10;102686.00;;;3.52;100.00
17593;BME280;8915;51.760;14.300;2023-02-12T04:15:49;102684.94;;;3.47;100.00
17593;BME280;8915;51.760;14.300;2023-02-12T04:18:22;102694.38;;;3.47;100.00
17593;BME280;8915;51.760;14.300;2023-02-12T04:20:56;102695.25;;;3.47;100.00
17593;BME280;8915;51.760;14.300;2023-02-12T04:23:42;102705.63;;;3.49;100.00
17593;BME280;8915;51.760;14.300;2023-02-12T04:26:17;102708.34;;;3.52;100.00
17593;BME280;8915;51.760;14.300;2023-02-12T04:28:58;102713.50;;;3.52;100.00
17593;BME280;8915;51.760;14.300;2023-02-12T04:31:31;102717.75;;;3.51;100.00
17593;BME280;8915;51.760;14.300;2023-02-12T04:34:05;102714.31;;;3.51;100.00
17593;BME280;8915;51.760;14.300;2023-02-12T04:36:37;102717.75;;;3.51;100.00
17593;BME280;8915;51.760;14.300;2023-02-12T04:39:09;102708.38;;;3.53;100.00
17593;BME280;8915;51.760;14.300;2023-02-12T04:41:37;102720.56;;;3.57;100.00
17593;BME280;8915;51.760;14.300;2023-02-12T04:44:15;102718.91;;;3.59;100.00
17593;BME280;8915;51.760;14.300;2023-02-12T04:46:41;102719.72;;;3.58;100.00
17593;BME280;8915;51.760;14.300;2023-02-12T04:49:13;102719.66;;;3.57;100.00
17593;BME280;8915;51.760;14.300;2023-02-12T04:51:39;102722.22;;;3.55;100.00
17593;BME280;8915;51.760;14.300;2023-02-12T04:54:06;102725.59;;;3.54;100.00
17593;BME280;8915;51.760;14.300;2023-02-12T04:56:32;102714.47;;;3.55;100.00
17593;BME280;8915;51.760;14.300;2023-02-12T04:58:58;102720.38;;;3.53;100.00
17593;BME280;8915;51.760;14.300;2023-02-12T05:01:25;102727.31;;;3.54;100.00
17593;BME280;8915;51.760;14.300;2023-02-12T05:03:51;102733.16;;;3.50;100.00
17593;BME280;8915;51.760;14.300;2023-02-12T05:06:19;102728.78;;;3.47;100.00
17593;BME280;8915;51.760;14.300;2023-02-12T05:08:45;102736.53;;;3.47;100.00
17593;BME280;8915;51.760;14.300;2023-02-12T05:11:11;102742.50;;;3.46;100.00
17593;BME280;8915;51.760;14.300;2023-02-12T05:13:38;102739.97;;;3.48;100.00
17593;BME280;8915;51.760;14.300;2023-02-12T05:16:07;102746.84;;;3.47;100.00
17593;BME280;8915;51.760;14.300;2023-02-12T05:18:34;102745.06;;;3.46;100.00
17593;BME280;8915;51.760;14.300;2023-02-12T05:21:02;102745.97;;;3.47;100.00
17593;BME280;8915;51.760;14.300;2023-02-12T05:23:32;102739.03;;;3.46;100.00
17593;BME280;8915;51.760;14.300;2023-02-12T05:26:00;102743.34;;;3.45;100.00
17593;BME280;8915;51.760;14.300;2023-02-12T05:28:26;102742.41;;;3.43;100.00
17593;BME280;8915;51.760;14.300;2023-02-12T05:30:53;102734.53;;;3.40;100.00
17593;BME280;8915;51.760;14.300;2023-02-12T05:33:19;102737.81;;;3.36;100.00
17593;BME280;8915;51.760;14.300;2023-02-12T05:35:46;102745.53;;;3.34;100.00
17593;BME280;8915;51.760;14.300;2023-02-12T05:38:12;102748.91;;;3.33;100.00
17593;BME280;8915;51.760;14.300;2023-02-12T05:40:40;102749.69;;;3.31;100.00
17593;BME280;8915;51.760;14.300;2023-02-12T05:43:07;102753.06;;;3.30;100.00
17593;BME280;8915;51.760;14.300;2023-02-12T05:45:34;102750.44;;;3.28;100.00
17593;BME280;8915;51.760;14.300;2023-02-12T05:48:00;102752.06;;;3.26;100.00
17593;BME280;8915;51.760;14.300;2023-02-12T05:50:26;102758.88;;;3.24;100.00
17593;BME280;8915;51.760;14.300;2023-02-12T05:52:58;102757.22;;;3.26;100.00
17593;BME280;8915;51.760;14.300;2023-02-12T05:55:24;102761.47;;;3.24;100.00
17593;BME280;8915;51.760;14.300;2023-02-12T05:57:52;102763.19;;;3.25;100.00
17593;BME280;8915;51.760;14.300;2023-02-12T06:00:20;102766.63;;;3.24;100.00
17593;BME280;8915;51.760;14.300;2023-02-12T06:02:46;102770.84;;;3.22;100.00
17593;BME280;8915;51.760;14.300;2023-02-12T06:05:13;102768.19;;;3.20;100.00
17593;BME280;8915;51.760;14.300;2023-02-12T06:07:39;102771.59;;;3.19;100.00
17593;BME280;8915;51.760;14.300;2023-02-12T06:10:07;102770.72;;;3.19;100.00
17593;BME280;8915;51.760;14.300;2023-02-12T06:12:33;102780.19;;;3.20;100.00
17593;BME280;8915;51.760;14.300;2023-02-12T06:15:01;102774.16;;;3.19;100.00
17593;BME280;8915;51.760;14.300;2023-02-12T06:17:28;102778.50;;;3.20;100.00
17593;BME280;8915;51.760;14.300;2023-02-12T06:19:54;102782.81;;;3.21;100.00
17593;BME280;8915;51.760;14.300;2023-02-12T06:22:21;102782.09;;;3.24;100.00
17593;BME280;8915;51.760;14.300;2023-02-12T06:24:47;102785.66;;;3.28;100.00
17593;BME280;8915;51.760;14.300;2023-02-12T06:27:13;102795.91;;;3.26;100.00
17593;BME280;8915;51.760;14.300;2023-02-12T06:29:40;102793.19;;;3.23;100.00
17593;BME280;8915;51.760;14.300;2023-02-12T06:32:08;102801.72;;;3.20;100.00
17593;BME280;8915;51.760;14.300;2023-02-12T06:34:37;102806.75;;;3.17;100.00
17593;BME280;8915;51.760;14.300;2023-02-12T06:37:04;102804.97;;;3.16;100.00
17593;BME280;8915;51.760;14.300;2023-02-12T06:39:30;102805.81;;;3.15;100.00
17593;BME280;8915;51.760;14.300;2023-02-12T06:41:56;102813.53;;;3.15;100.00
17593;BME280;8915;51.760;14.300;2023-02-12T06:44:23;102813.53;;;3.15;100.00
17593;BME280;8915;51.760;14.300;2023-02-12T06:46:49;102812.69;;;3.16;100.00
17593;BME280;8915;51.760;14.300;2023-02-12T06:49:17;102814.34;;;3.14;100.00
17593;BME280;8915;51.760;14.300;2023-02-12T06:51:43;102827.16;;;3.13;100.00
17593;BME280;8915;51.760;14.300;2023-02-12T06:54:14;102826.31;;;3.12;100.00
17593;BME280;8915;51.760;14.300;2023-02-12T06:56:41;102826.38;;;3.14;100.00
17593;BME280;8915;51.760;14.300;2023-02-12T06:59:12;102831.66;;;3.17;100.00
17593;BME280;8915;51.760;14.300;2023-02-12T07:01:39;102828.22;;;3.18;100.00
17593;BME280;8915;51.760;14.300;2023-02-12T07:04:05;102835.16;;;3.19;100.00
17593;BME280;8915;51.760;14.300;2023-02-12T07:06:37;102833.47;;;3.19;100.00
17593;BME280;8915;51.760;14.300;2023-02-12T07:09:04;102834.28;;;3.18;100.00
17593;BME280;8915;51.760;14.300;2023-02-12T07:11:32;102837.75;;;3.19;100.00
17593;BME280;8915;51.760;14.300;2023-02-12T07:13:59;102836.03;;;3.19;100.00
17593;BME280;8915;51.760;14.300;2023-02-12T07:16:27;102843.91;;;3.22;100.00
17593;BME280;8915;51.760;14.300;2023-02-12T07:18:53;102849.19;;;3.26;100.00
17593;BME280;8915;51.760;14.300;2023-02-12T07:21:20;102854.44;;;3.29;100.00
17593;BME280;8915;51.760;14.300;2023-02-12T07:23:49;102852.84;;;3.32;100.00
17593;BME280;8915;51.760;14.300;2023-02-12T07:26:16;102859.00;;;3.36;100.00
17593;BME280;8915;51.760;14.300;2023-02-12T07:28:42;102867.78;;;3.39;100.00
17593;BME280;8915;51.760;14.300;2023-02-12T07:31:11;102866.19;;;3.43;100.00
17593;BME280;8915;51.760;14.300;2023-02-12T07:33:39;102866.34;;;3.48;100.00
17593;BME280;8915;51.760;14.300;2023-02-12T07:36:08;102872.50;;;3.51;100.00
17593;BME280;8915;51.760;14.300;2023-02-12T07:38:35;102877.88;;;3.56;100.00
17593;BME280;8915;51.760;14.300;2023-02-12T07:41:10;102878.94;;;3.61;100.00
17593;BME280;8915;51.760;14.300;2023-02-12T07:43:38;102878.22;;;3.65;100.00
17593;BME280;8915;51.760;14.300;2023-02-12T07:46:06;102886.06;;;3.68;100.00
17593;BME280;8915;51.760;14.300;2023-02-12T07:48:33;102893.94;;;3.71;100.00
17593;BME280;8915;51.760;14.300;2023-02-12T07:51:02;102889.72;;;3.73;100.00
17593;BME280;8915;51.760;14.300;2023-02-12T07:53:29;102893.28;;;3.77;100.00
17593;BME280;8915;51.760;14.300;2023-02-12T07:56:03;102894.28;;;3.81;100.00
17593;BME280;8915;51.760;14.300;2023-02-12T07:58:31;102895.28;;;3.84;100.00
17593;BME280;8915;51.760;14.300;2023-02-12T08:00:57;102898.84;;;3.88;100.00
17593;BME280;8915;51.760;14.300;2023-02-12T08:03:26;102899.84;;;3.91;100.00
17593;BME280;8915;51.760;14.300;2023-02-12T08:05:53;102901.72;;;3.95;100.00
17593;BME280;8915;51.760;14.300;2023-02-12T08:08:19;102907.88;;;3.99;100.00
17593;BME280;8915;51.760;14.300;2023-02-12T08:10:45;102911.50;;;4.04;100.00
17593;BME280;8915;51.760;14.300;2023-02-12T08:13:12;102909.03;;;4.07;100.00
17593;BME280;8915;51.760;14.300;2023-02-12T08:15:40;102911.81;;;4.12;100.00
17593;BME280;8915;51.760;14.300;2023-02-12T08:18:07;102918.91;;;4.17;100.00
17593;BME280;8915;51.760;14.300;2023-02-12T08:20:33;102916.50;;;4.22;100.00
17593;BME280;8915;51.760;14.300;2023-02-12T08:23:00;102918.25;;;4.23;100.00
17593;BME280;8915;51.760;14.300;2023-02-12T08:25:29;102917.44;;;4.24;100.00
17593;BME280;8915;51.760;14.300;2023-02-12T08:27:55;102924.34;;;4.25;100.00
17593;BME280;8915;51.760;14.300;2023-02-12T08:30:22;102926.25;;;4.31;100.00
17593;BME280;8915;51.760;14.300;2023-02-12T08:32:49;102926.50;;;4.37;100.00
17593;BME280;8915;51.760;14.300;2023-02-12T08:35:16;102929.34;;;4.45;100.00
17593;BME280;8915;51.760;14.300;2023-02-12T08:37:42;102922.56;;;4.48;100.00
17593;BME280;8915;51.760;14.300;2023-02-12T08:40:10;102923.53;;;4.50;100.00
17593;BME280;8915;51.760;14.300;2023-02-12T08:42:37;102912.41;;;4.53;100.00
17593;BME280;8915;51.760;14.300;2023-02-12T08:45:04;102914.38;;;4.60;100.00
17593;BME280;8915;51.760;14.300;2023-02-12T08:47:30;102910.94;;;4.60;100.00
17593;BME280;8915;51.760;14.300;2023-02-12T08:49:58;102918.06;;;4.67;100.00
17593;BME280;8915;51.760;14.300;2023-02-12T08:52:28;102917.25;;;4.68;100.00
17593;BME280;8915;51.760;14.300;2023-02-12T08:54:54;102921.66;;;4.70;100.00
17593;BME280;8915;51.760;14.300;2023-02-12T08:57:20;102924.34;;;4.73;100.00
17593;BME280;8915;51.760;14.300;2023-02-12T08:59:47;102935.66;;;4.77;100.00
17593;BME280;8915;51.760;14.300;2023-02-12T09:02:14;102939.22;;;4.81;100.00
17593;BME280;8915;51.760;14.300;2023-02-12T09:04:40;102937.63;;;4.84;100.00
17593;BME280;8915;51.760;14.300;2023-02-12T09:07:08;102939.28;;;4.82;100.00
17593;BME280;8915;51.760;14.300;2023-02-12T09:09:34;102941.09;;;4.85;100.00
17593;BME280;8915;51.760;14.300;2023-02-12T09:12:04;102948.09;;;4.89;100.00
17593;BME280;8915;51.760;14.300;2023-02-12T09:14:31;102954.38;;;4.96;100.00
17593;BME280;8915;51.760;14.300;2023-02-12T09:16:57;102954.44;;;4.97;100.00
17593;BME280;8915;51.760;14.300;2023-02-12T09:19:23;102946.78;;;5.00;100.00
17593;BME280;8915;51.760;14.300;2023-02-12T09:21:51;102951.84;;;4.97;100.00
17593;BME280;8915;51.760;14.300;2023-02-12T09:24:19;102963.91;;;4.97;100.00
17593;BME280;8915;51.760;14.300;2023-02-12T09:26:45;102963.84;;;4.95;100.00
17593;BME280;8915;51.760;14.300;2023-02-12T09:29:11;102965.56;;;4.95;100.00
17593;BME280;8915;51.760;14.300;2023-02-12T09:31:38;102968.91;;;4.92;100.00
17593;BME280;8915;51.760;14.300;2023-02-12T09:34:05;102962.88;;;4.91;100.00
17593;BME280;8915;51.760;14.300;2023-02-12T09:36:32;102962.06;;;4.92;100.00
17593;BME280;8915;51.760;14.300;2023-02-12T09:38:59;102963.78;;;4.93;100.00
17593;BME280;8915;51.760;14.300;2023-02-12T09:41:45;102971.56;;;4.93;100.00
17593;BME280;8915;51.760;14.300;2023-02-12T09:44:20;102974.94;;;4.91;100.00
17593;BME280;8915;51.760;14.300;2023-02-12T09:46:51;102968.03;;;4.91;100.00
17593;BME280;8915;51.760;14.300;2023-02-12T09:49:28;102981.06;;;4.95;100.00
17593;BME280;8915;51.760;14.300;2023-02-12T09:52:00;102972.41;;;4.94;100.00
17593;BME280;8915;51.760;14.300;2023-02-12T09:54:33;102977.66;;;4.96;100.00
17593;BME280;8915;51.760;14.300;2023-02-12T09:57:10;102987.22;;;4.98;100.00
17593;BME280;8915;51.760;14.300;2023-02-12T09:59:42;102986.44;;;5.01;100.00
17593;BME280;8915;51.760;14.300;2023-02-12T10:02:11;102993.38;;;5.02;100.00
17593;BME280;8915;51.760;14.300;2023-02-12T10:04:40;102993.38;;;5.02;100.00
17593;BME280;8915;51.760;14.300;2023-02-12T10:07:21;102988.28;;;5.03;100.00
17593;BME280;8915;51.760;14.300;2023-02-12T10:10:09;102984.91;;;5.06;100.00
17593;BME280;8915;51.760;14.300;2023-02-12T10:12:46;102982.47;;;5.10;100.00
17593;BME280;8915;51.760;14.300;2023-02-12T10:15:34;102979.28;;;5.18;100.00
17593;BME280;8915;51.760;14.300;2023-02-12T10:18:13;102979.22;;;5.16;100.00
17593;BME280;8915;51.760;14.300;2023-02-12T10:21:00;102981.75;;;5.15;100.00
17593;BME280;8915;51.760;14.300;2023-02-12T10:23:44;102978.53;;;5.22;100.00
17593;BME280;8915;51.760;14.300;2023-02-12T10:26:18;102985.50;;;5.23;100.00
17593;BME280;8915;51.760;14.300;2023-02-12T10:28:48;102974.41;;;5.27;100.00
17593;BME280;8915;51.760;14.300;2023-02-12T10:31:18;102978.59;;;5.23;100.00
17593;BME280;8915;51.760;14.300;2023-02-12T10:33:48;102976.00;;;5.23;100.00
17593;BME280;8915;51.760;14.300;2023-02-12T10:36:26;102981.34;;;5.28;100.00
17593;BME280;8915;51.760;14.300;2023-02-12T10:38:59;102976.13;;;5.26;100.00
17593;BME280;8915;51.760;14.300;2023-02-12T10:41:29;102982.38;;;5.33;100.00
17593;BME280;8915;51.760;14.300;2023-02-12T10:43:57;102978.19;;;5.37;100.00
17593;BME280;8915;51.760;14.300;2023-02-12T10:46:24;102978.19;;;5.37;100.00
17593;BME280;8915;51.760;14.300;2023-02-12T10:48:52;102978.38;;;5.43;100.00
17593;BME280;8915;51.760;14.300;2023-02-12T10:51:43;102977.63;;;5.45;100.00
17593;BME280;8915;51.760;14.300;2023-02-12T10:54:35;102977.78;;;5.52;100.00
17593;BME280;8915;51.760;14.300;2023-02-12T10:57:10;102976.44;;;5.63;100.00
17593;BME280;8915;51.760;14.300;2023-02-12T10:59:40;102974.72;;;5.63;100.00
17593;BME280;8915;51.760;14.300;2023-02-12T11:02:19;102972.25;;;5.68;100.00
17593;BME280;8915;51.760;14.300;2023-02-12T11:04:46;102974.19;;;5.74;100.00
17593;BME280;8915;51.760;14.300;2023-02-12T11:07:12;102971.78;;;5.80;100.00
17593;BME280;8915;51.760;14.300;2023-02-12T11:09:41;102965.84;;;5.82;100.00
17593;BME280;8915;51.760;14.300;2023-02-12T11:12:25;102966.84;;;5.87;100.00
17593;BME280;8915;51.760;14.300;2023-02-12T11:14:57;102966.06;;;5.90;100.00
17593;BME280;8915;51.760;14.300;2023-02-12T11:17:27;102959.84;;;5.85;100.00
17593;BME280;8915;51.760;14.300;2023-02-12T11:22:49;102967.34;;;6.03;100.00
17593;BME280;8915;51.760;14.300;2023-02-12T11:25:16;102963.00;;;6.02;100.00
17593;BME280;8915;51.760;14.300;2023-02-12T11:27:43;102971.75;;;6.05;100.00
17593;BME280;8915;51.760;14.300;2023-02-12T11:30:17;102969.19;;;6.07;100.00
17593;BME280;8915;51.760;14.300;2023-02-12T11:32:43;102968.41;;;6.10;100.00
17593;BME280;8915;51.760;14.300;2023-02-12T11:35:13;102969.53;;;6.18;100.00
17593;BME280;8915;51.760;14.300;2023-02-12T11:37:44;102961.91;;;6.24;100.00
17593;BME280;8915;51.760;14.300;2023-02-12T11:40:16;102955.19;;;6.31;100.00
17593;BME280;8915;51.760;14.300;2023-02-12T11:42:47;102957.69;;;6.28;100.00
17593;BME280;8915;51.760;14.300;2023-02-12T11:45:17;102953.75;;;6.40;100.00
17593;BME280;8915;51.760;14.300;2023-02-12T11:47:45;102953.88;;;6.45;100.00
17593;BME280;8915;51.760;14.300;2023-02-12T11:50:22;102942.59;;;6.43;100.00
17593;BME280;8915;51.760;14.300;2023-02-12T11:52:50;102940.34;;;6.55;100.00
17593;BME280;8915;51.760;14.300;2023-02-12T11:55:20;102945.75;;;6.64;100.00
17593;BME280;8915;51.760;14.300;2023-02-12T11:57:48;102945.66;;;6.60;100.00
17593;BME280;8915;51.760;14.300;2023-02-12T12:00:20;102944.03;;;6.63;100.00
17593;BME280;8915;51.760;14.300;2023-02-12T12:02:54;102937.16;;;6.66;100.00
17593;BME280;8915;51.760;14.300;2023-02-12T12:05:27;102943.13;;;6.63;100.00
17593;BME280;8915;51.760;14.300;2023-02-12T12:07:59;102941.47;;;6.65;100.00
17593;BME280;8915;51.760;14.300;2023-02-12T12:10:33;102941.81;;;6.77;100.00
17593;BME280;8915;51.760;14.300;2023-02-12T12:13:03;102930.66;;;6.81;100.00
17593;BME280;8915;51.760;14.300;2023-02-12T12:15:35;102929.13;;;6.88;100.00
17593;BME280;8915;51.760;14.300;2023-02-12T12:18:24;102930.81;;;6.88;100.00
17593;BME280;8915;51.760;14.300;2023-02-12T12:21:13;102946.13;;;6.78;100.00
17593;BME280;8915;51.760;14.300;2023-02-12T12:23:44;102943.69;;;6.83;100.00
17593;BME280;8915;51.760;14.300;2023-02-12T12:26:17;102942.81;;;6.84;100.00
17593;BME280;8915;51.760;14.300;2023-02-12T12:28:50;102933.34;;;6.85;100.00
17593;BME280;8915;51.760;14.300;2023-02-12T12:31:22;102931.47;;;6.79;100.00
17593;BME280;8915;51.760;14.300;2023-02-12T12:33:52;102928.84;;;6.77;100.00
17593;BME280;8915;51.760;14.300;2023-02-12T12:36:33;102935.66;;;6.74;100.00
17593;BME280;8915;51.760;14.300;2023-02-12T12:39:09;102934.63;;;6.67;100.00
17593;BME280;8915;51.760;14.300;2023-02-12T12:41:54;102933.47;;;6.57;100.00
17593;BME280;8915;51.760;14.300;2023-02-12T12:44:33;102918.00;;;6.60;100.00
17593;BME280;8915;51.760;14.300;2023-02-12T12:47:16;102919.69;;;6.58;100.00
17593;BME280;8915;51.760;14.300;2023-02-12T12:49:52;102915.28;;;6.56;100.00
17593;BME280;8915;51.760;14.300;2023-02-12T12:52:41;102911.78;;;6.54;100.00
17593;BME280;8915;51.760;14.300;2023-02-12T12:55:26;102919.50;;;6.52;100.00
17593;BME280;8915;51.760;14.300;2023-02-12T12:58:02;102917.72;;;6.50;100.00
17593;BME280;8915;51.760;14.300;2023-02-12T13:00:54;102917.88;;;6.56;100.00
17593;BME280;8915;51.760;14.300;2023-02-12T13:03:41;102928.28;;;6.57;100.00
17593;BME280;8915;51.760;14.300;2023-02-12T13:06:39;102919.78;;;6.63;100.00
17593;BME280;8915;51.760;14.300;2023-02-12T13:09:23;102924.78;;;6.55;100.00
17593;BME280;8915;51.760;14.300;2023-02-12T13:12:05;102923.03;;;6.54;100.00
17593;BME280;8915;51.760;14.300;2023-02-12T13:14:43;102922.88;;;6.48;100.00